sensor_id;sensor_type;location;lat;lon;timestamp;P1;durP1;ratioP1;P2;durP2;ratioP2
74660;SDS011;63191;39.566;2.654;2022-11-18T00:02:13;10.10;;;1.10;;
74660;SDS011;63191;39.566;2.654;2022-11-18T00:04:39;10.40;;;1.10;;
74660;SDS011;63191;39.566;2.654;2022-11-18T00:07:04;13.00;;;1.00;;
74660;SDS011;63191;39.566;2.654;2022-11-18T00:09:30;7.30;;;0.80;;
74660;SDS011;63191;39.566;2.654;2022-11-18T00:11:56;12.70;;;1.30;;
74660;SDS011;63191;39.566;2.654;2022-11-18T00:14:40;6.60;;;0.70;;
74660;SDS011;63191;39.566;2.654;2022-11-18T00:17:06;8.00;;;1.40;;
74660;SDS011;63191;39.566;2.654;2022-11-18T00:19:34;8.70;;;1.40;;
74660;SDS011;63191;39.566;2.654;2022-11-18T00:22:01;9.60;;;1.50;;
74660;SDS011;63191;39.566;2.654;2022-11-18T00:24:28;10.50;;;1.00;;
74660;SDS011;63191;39.566;2.654;2022-11-18T00:26:54;4.90;;;0.80;;
74660;SDS011;63191;39.566;2.654;2022-11-18T00:29:21;7.00;;;0.90;;
74660;SDS011;63191;39.566;2.654;2022-11-18T00:31:48;9.00;;;0.90;;
74660;SDS011;63191;39.566;2.654;2022-11-18T00:34:16;7.80;;;0.70;;
74660;SDS011;63191;39.566;2.654;2022-11-18T00:36:43;6.10;;;0.80;;
74660;SDS011;63191;39.566;2.654;2022-11-18T00:39:11;5.80;;;0.70;;
74660;SDS011;63191;39.566;2.654;2022-11-18T00:41:37;7.30;;;0.70;;
74660;SDS011;63191;39.566;2.654;2022-11-18T00:44:22;6.90;;;0.70;;
74660;SDS011;63191;39.566;2.654;2022-11-18T00:46:47;7.10;;;0.70;;
74660;SDS011;63191;39.566;2.654;2022-11-18T00:49:13;5.90;;;0.90;;
74660;SDS011;63191;39.566;2.654;2022-11-18T00:51:39;6.00;;;0.70;;
74660;SDS011;63191;39.566;2.654;2022-11-18T00:54:05;5.30;;;0.80;;
74660;SDS011;63191;39.566;2.654;2022-11-18T00:56:31;4.90;;;0.60;;
74660;SDS011;63191;39.566;2.654;2022-11-18T00:58:56;5.20;;;0.80;;
74660;SDS011;63191;39.566;2.654;2022-11-18T01:01:22;4.70;;;0.60;;
74660;SDS011;63191;39.566;2.654;2022-11-18T01:03:48;4.20;;;0.60;;
74660;SDS011;63191;39.566;2.654;2022-11-18T01:06:14;3.50;;;0.70;;
74660;SDS011;63191;39.566;2.654;2022-11-18T01:08:39;6.00;;;0.70;;
74660;SDS011;63191;39.566;2.654;2022-11-18T01:11:05;4.20;;;0.40;;
74660;SDS011;63191;39.566;2.654;2022-11-18T01:13:54;5.00;;;0.60;;
74660;SDS011;63191;39.566;2.654;2022-11-18T01:16:22;3.20;;;0.50;;
74660;SDS011;63191;39.566;2.654;2022-11-18T01:18:49;4.40;;;0.80;;
74660;SDS011;63191;39.566;2.654;2022-11-18T01:21:16;7.70;;;0.80;;
74660;SDS011;63191;39.566;2.654;2022-11-18T01:23:41;5.30;;;0.60;;
74660;SDS011;63191;39.566;2.654;2022-11-18T01:26:10;3.40;;;0.60;;
74660;SDS011;63191;39.566;2.654;2022-11-18T01:28:37;6.50;;;0.90;;
74660;SDS011;63191;39.566;2.654;2022-11-18T01:31:15;6.20;;;0.50;;
74660;SDS011;63191;39.566;2.654;2022-11-18T01:33:43;5.00;;;0.60;;
74660;SDS011;63191;39.566;2.654;2022-11-18T01:36:21;4.20;;;0.50;;
74660;SDS011;63191;39.566;2.654;2022-11-18T01:38:51;6.60;;;0.60;;
74660;SDS011;63191;39.566;2.654;2022-11-18T01:41:18;9.00;;;0.90;;
74660;SDS011;63191;39.566;2.654;2022-11-18T01:44:52;6.90;;;0.90;;
74660;SDS011;63191;39.566;2.654;2022-11-18T01:47:10;6.80;;;0.60;;
74660;SDS011;63191;39.566;2.654;2022-11-18T01:49:35;8.50;;;0.80;;
74660;SDS011;63191;39.566;2.654;2022-11-18T01:52:01;8.50;;;1.00;;
74660;SDS011;63191;39.566;2.654;2022-11-18T01:54:36;8.20;;;1.10;;
74660;SDS011;63191;39.566;2.654;2022-11-18T01:57:10;9.90;;;1.00;;
74660;SDS011;63191;39.566;2.654;2022-11-18T01:59:39;9.00;;;1.20;;
74660;SDS011;63191;39.566;2.654;2022-11-18T02:02:11;8.50;;;1.30;;
74660;SDS011;63191;39.566;2.654;2022-11-18T02:04:40;7.00;;;0.80;;
74660;SDS011;63191;39.566;2.654;2022-11-18T02:07:08;8.70;;;1.00;;
74660;SDS011;63191;39.566;2.654;2022-11-18T02:09:36;8.60;;;1.20;;
74660;SDS011;63191;39.566;2.654;2022-11-18T02:12:03;9.70;;;1.20;;
74660;SDS011;63191;39.566;2.654;2022-11-18T02:14:36;7.80;;;0.90;;
74660;SDS011;63191;39.566;2.654;2022-11-18T02:17:17;9.30;;;0.80;;
74660;SDS011;63191;39.566;2.654;2022-11-18T02:20:22;7.70;;;1.00;;
74660;SDS011;63191;39.566;2.654;2022-11-18T02:31:28;6.90;;;0.90;;
74660;SDS011;63191;39.566;2.654;2022-11-18T02:34:05;11.10;;;1.20;;
74660;SDS011;63191;39.566;2.654;2022-11-18T02:36:54;10.80;;;0.90;;
74660;SDS011;63191;39.566;2.654;2022-11-18T02:39:33;9.70;;;1.00;;
74660;SDS011;63191;39.566;2.654;2022-11-18T02:42:04;7.00;;;1.00;;
74660;SDS011;63191;39.566;2.654;2022-11-18T02:44:34;10.40;;;1.30;;
74660;SDS011;63191;39.566;2.654;2022-11-18T02:47:05;9.50;;;0.80;;
74660;SDS011;63191;39.566;2.654;2022-11-18T02:49:49;10.30;;;1.20;;
74660;SDS011;63191;39.566;2.654;2022-11-18T02:52:17;8.50;;;1.30;;
74660;SDS011;63191;39.566;2.654;2022-11-18T02:54:46;7.50;;;0.80;;
74660;SDS011;63191;39.566;2.654;2022-11-18T02:57:14;8.00;;;0.90;;
74660;SDS011;63191;39.566;2.654;2022-11-18T02:59:40;7.70;;;0.70;;
74660;SDS011;63191;39.566;2.654;2022-11-18T03:02:13;10.40;;;1.10;;
74660;SDS011;63191;39.566;2.654;2022-11-18T03:04:42;10.70;;;1.40;;
74660;SDS011;63191;39.566;2.654;2022-11-18T03:09:50;8.80;;;0.80;;
74660;SDS011;63191;39.566;2.654;2022-11-18T03:18:26;8.80;;;0.90;;
74660;SDS011;63191;39.566;2.654;2022-11-18T03:21:02;9.30;;;0.90;;
74660;SDS011;63191;39.566;2.654;2022-11-18T03:23:37;8.30;;;0.90;;
74660;SDS011;63191;39.566;2.654;2022-11-18T03:26:10;8.00;;;1.20;;
74660;SDS011;63191;39.566;2.654;2022-11-18T03:31:44;7.90;;;0.80;;
74660;SDS011;63191;39.566;2.654;2022-11-18T03:34:23;7.40;;;0.90;;
74660;SDS011;63191;39.566;2.654;2022-11-18T03:36:56;6.80;;;0.60;;
74660;SDS011;63191;39.566;2.654;2022-11-18T03:39:27;9.70;;;1.20;;
74660;SDS011;63191;39.566;2.654;2022-11-18T03:44:55;8.10;;;1.20;;
74660;SDS011;63191;39.566;2.654;2022-11-18T03:47:38;10.90;;;0.90;;
74660;SDS011;63191;39.566;2.654;2022-11-18T03:50:19;6.40;;;0.80;;
74660;SDS011;63191;39.566;2.654;2022-11-18T03:52:48;8.00;;;1.00;;
74660;SDS011;63191;39.566;2.654;2022-11-18T03:55:19;7.40;;;1.00;;
74660;SDS011;63191;39.566;2.654;2022-11-18T04:00:33;7.20;;;0.80;;
74660;SDS011;63191;39.566;2.654;2022-11-18T04:03:03;7.40;;;0.80;;
74660;SDS011;63191;39.566;2.654;2022-11-18T04:05:32;8.40;;;0.90;;
74660;SDS011;63191;39.566;2.654;2022-11-18T04:08:06;9.20;;;1.00;;
74660;SDS011;63191;39.566;2.654;2022-11-18T04:10:58;7.50;;;0.90;;
74660;SDS011;63191;39.566;2.654;2022-11-18T04:14:03;5.40;;;0.70;;
74660;SDS011;63191;39.566;2.654;2022-11-18T04:16:38;9.60;;;0.80;;
74660;SDS011;63191;39.566;2.654;2022-11-18T04:19:05;7.80;;;0.80;;
74660;SDS011;63191;39.566;2.654;2022-11-18T04:21:30;6.10;;;0.70;;
74660;SDS011;63191;39.566;2.654;2022-11-18T04:23:56;7.20;;;0.90;;
74660;SDS011;63191;39.566;2.654;2022-11-18T04:26:22;9.40;;;0.90;;
74660;SDS011;63191;39.566;2.654;2022-11-18T04:28:47;8.90;;;0.90;;
74660;SDS011;63191;39.566;2.654;2022-11-18T04:31:13;6.30;;;0.40;;
74660;SDS011;63191;39.566;2.654;2022-11-18T04:33:39;6.20;;;0.70;;
74660;SDS011;63191;39.566;2.654;2022-11-18T04:36:05;7.30;;;0.50;;
74660;SDS011;63191;39.566;2.654;2022-11-18T04:38:31;9.00;;;0.70;;
74660;SDS011;63191;39.566;2.654;2022-11-18T04:40:56;6.30;;;0.70;;
74660;SDS011;63191;39.566;2.654;2022-11-18T04:43:22;8.40;;;1.00;;
74660;SDS011;63191;39.566;2.654;2022-11-18T04:45:47;4.70;;;0.50;;
74660;SDS011;63191;39.566;2.654;2022-11-18T04:48:13;8.50;;;0.60;;
74660;SDS011;63191;39.566;2.654;2022-11-18T04:50:40;8.70;;;0.50;;
74660;SDS011;63191;39.566;2.654;2022-11-18T04:53:05;3.40;;;0.50;;
74660;SDS011;63191;39.566;2.654;2022-11-18T04:55:34;12.40;;;0.80;;
74660;SDS011;63191;39.566;2.654;2022-11-18T04:58:00;6.10;;;0.60;;
74660;SDS011;63191;39.566;2.654;2022-11-18T05:00:26;4.80;;;0.40;;
74660;SDS011;63191;39.566;2.654;2022-11-18T05:02:52;5.80;;;0.60;;
74660;SDS011;63191;39.566;2.654;2022-11-18T05:05:18;11.20;;;0.80;;
74660;SDS011;63191;39.566;2.654;2022-11-18T05:07:44;5.90;;;0.50;;
74660;SDS011;63191;39.566;2.654;2022-11-18T05:10:09;4.50;;;0.40;;
74660;SDS011;63191;39.566;2.654;2022-11-18T05:12:35;4.40;;;0.40;;
74660;SDS011;63191;39.566;2.654;2022-11-18T05:15:13;4.70;;;0.40;;
74660;SDS011;63191;39.566;2.654;2022-11-18T05:17:40;5.90;;;0.50;;
74660;SDS011;63191;39.566;2.654;2022-11-18T05:20:06;4.50;;;0.60;;
74660;SDS011;63191;39.566;2.654;2022-11-18T05:22:32;3.60;;;0.40;;
74660;SDS011;63191;39.566;2.654;2022-11-18T05:24:58;4.20;;;0.40;;
74660;SDS011;63191;39.566;2.654;2022-11-18T05:27:24;6.20;;;0.40;;
74660;SDS011;63191;39.566;2.654;2022-11-18T05:29:50;5.10;;;0.40;;
74660;SDS011;63191;39.566;2.654;2022-11-18T05:32:16;5.00;;;0.70;;
74660;SDS011;63191;39.566;2.654;2022-11-18T05:34:43;5.50;;;0.40;;
74660;SDS011;63191;39.566;2.654;2022-11-18T05:37:09;5.10;;;0.40;;
74660;SDS011;63191;39.566;2.654;2022-11-18T05:39:35;5.90;;;0.60;;
74660;SDS011;63191;39.566;2.654;2022-11-18T05:42:01;4.10;;;0.50;;
74660;SDS011;63191;39.566;2.654;2022-11-18T05:44:45;5.70;;;0.30;;
74660;SDS011;63191;39.566;2.654;2022-11-18T05:47:12;5.10;;;0.30;;
74660;SDS011;63191;39.566;2.654;2022-11-18T05:49:37;6.60;;;0.60;;
74660;SDS011;63191;39.566;2.654;2022-11-18T05:52:03;5.50;;;0.50;;
74660;SDS011;63191;39.566;2.654;2022-11-18T05:54:30;4.30;;;0.40;;
74660;SDS011;63191;39.566;2.654;2022-11-18T05:56:56;6.30;;;0.40;;
74660;SDS011;63191;39.566;2.654;2022-11-18T05:59:21;4.90;;;0.60;;
74660;SDS011;63191;39.566;2.654;2022-11-18T06:02:03;6.90;;;0.50;;
74660;SDS011;63191;39.566;2.654;2022-11-18T06:04:36;6.20;;;0.50;;
74660;SDS011;63191;39.566;2.654;2022-11-18T06:07:21;6.30;;;0.50;;
74660;SDS011;63191;39.566;2.654;2022-11-18T06:09:53;6.20;;;0.50;;
74660;SDS011;63191;39.566;2.654;2022-11-18T06:12:24;5.10;;;0.40;;
74660;SDS011;63191;39.566;2.654;2022-11-18T06:15:25;6.20;;;1.00;;
74660;SDS011;63191;39.566;2.654;2022-11-18T06:18:16;6.50;;;0.70;;
74660;SDS011;63191;39.566;2.654;2022-11-18T06:20:50;5.50;;;0.50;;
74660;SDS011;63191;39.566;2.654;2022-11-18T06:23:17;3.70;;;0.50;;
74660;SDS011;63191;39.566;2.654;2022-11-18T06:25:43;8.40;;;0.60;;
74660;SDS011;63191;39.566;2.654;2022-11-18T06:28:11;7.00;;;0.80;;
74660;SDS011;63191;39.566;2.654;2022-11-18T06:30:38;9.50;;;0.80;;
74660;SDS011;63191;39.566;2.654;2022-11-18T06:33:04;4.00;;;0.50;;
74660;SDS011;63191;39.566;2.654;2022-11-18T06:35:29;4.50;;;0.70;;
74660;SDS011;63191;39.566;2.654;2022-11-18T06:37:55;6.40;;;0.80;;
74660;SDS011;63191;39.566;2.654;2022-11-18T06:40:21;7.40;;;0.90;;
74660;SDS011;63191;39.566;2.654;2022-11-18T06:42:46;7.00;;;1.10;;
74660;SDS011;63191;39.566;2.654;2022-11-18T06:45:30;6.10;;;0.60;;
74660;SDS011;63191;39.566;2.654;2022-11-18T06:47:57;4.00;;;0.70;;
74660;SDS011;63191;39.566;2.654;2022-11-18T06:50:25;3.90;;;0.50;;
74660;SDS011;63191;39.566;2.654;2022-11-18T06:52:52;6.00;;;0.70;;
74660;SDS011;63191;39.566;2.654;2022-11-18T06:55:18;7.50;;;0.80;;
74660;SDS011;63191;39.566;2.654;2022-11-18T06:57:44;7.70;;;0.70;;
74660;SDS011;63191;39.566;2.654;2022-11-18T07:00:10;5.50;;;0.50;;
74660;SDS011;63191;39.566;2.654;2022-11-18T07:02:37;9.00;;;0.70;;
74660;SDS011;63191;39.566;2.654;2022-11-18T07:05:04;8.50;;;1.00;;
74660;SDS011;63191;39.566;2.654;2022-11-18T07:07:34;8.30;;;1.50;;
74660;SDS011;63191;39.566;2.654;2022-11-18T07:10:00;12.00;;;1.40;;
74660;SDS011;63191;39.566;2.654;2022-11-18T07:12:26;9.90;;;0.90;;
74660;SDS011;63191;39.566;2.654;2022-11-18T07:14:51;11.50;;;0.90;;
74660;SDS011;63191;39.566;2.654;2022-11-18T07:17:17;11.10;;;1.00;;
74660;SDS011;63191;39.566;2.654;2022-11-18T07:19:42;12.40;;;1.60;;
74660;SDS011;63191;39.566;2.654;2022-11-18T07:22:08;11.10;;;1.20;;
74660;SDS011;63191;39.566;2.654;2022-11-18T07:24:34;11.40;;;1.40;;
74660;SDS011;63191;39.566;2.654;2022-11-18T07:26:59;9.00;;;1.20;;
74660;SDS011;63191;39.566;2.654;2022-11-18T07:29:25;6.30;;;0.80;;
74660;SDS011;63191;39.566;2.654;2022-11-18T07:31:51;10.10;;;1.30;;
74660;SDS011;63191;39.566;2.654;2022-11-18T07:34:16;8.40;;;0.90;;
74660;SDS011;63191;39.566;2.654;2022-11-18T07:36:42;7.40;;;1.20;;
74660;SDS011;63191;39.566;2.654;2022-11-18T07:39:08;8.20;;;1.40;;
74660;SDS011;63191;39.566;2.654;2022-11-18T07:41:34;8.50;;;1.20;;
74660;SDS011;63191;39.566;2.654;2022-11-18T07:44:02;5.30;;;1.00;;
74660;SDS011;63191;39.566;2.654;2022-11-18T07:46:31;5.10;;;0.90;;
74660;SDS011;63191;39.566;2.654;2022-11-18T07:49:00;6.90;;;1.30;;
74660;SDS011;63191;39.566;2.654;2022-11-18T07:51:28;7.00;;;1.30;;
74660;SDS011;63191;39.566;2.654;2022-11-18T07:53:56;7.20;;;1.30;;
74660;SDS011;63191;39.566;2.654;2022-11-18T07:56:22;12.30;;;1.60;;
74660;SDS011;63191;39.566;2.654;2022-11-18T07:58:51;5.40;;;1.10;;
74660;SDS011;63191;39.566;2.654;2022-11-18T08:01:20;8.50;;;1.00;;
74660;SDS011;63191;39.566;2.654;2022-11-18T08:03:47;7.50;;;0.90;;
74660;SDS011;63191;39.566;2.654;2022-11-18T08:06:15;10.10;;;1.30;;
74660;SDS011;63191;39.566;2.654;2022-11-18T08:08:42;10.80;;;1.20;;
74660;SDS011;63191;39.566;2.654;2022-11-18T08:11:11;5.50;;;1.00;;
74660;SDS011;63191;39.566;2.654;2022-11-18T08:13:41;7.30;;;1.10;;
74660;SDS011;63191;39.566;2.654;2022-11-18T08:16:13;7.00;;;1.50;;
74660;SDS011;63191;39.566;2.654;2022-11-18T08:18:40;9.30;;;1.30;;
74660;SDS011;63191;39.566;2.654;2022-11-18T08:21:06;10.60;;;1.50;;
74660;SDS011;63191;39.566;2.654;2022-11-18T08:23:32;4.80;;;1.10;;
74660;SDS011;63191;39.566;2.654;2022-11-18T08:26:06;6.30;;;0.90;;
74660;SDS011;63191;39.566;2.654;2022-11-18T08:28:33;4.30;;;1.10;;
74660;SDS011;63191;39.566;2.654;2022-11-18T08:30:59;16.40;;;2.30;;
74660;SDS011;63191;39.566;2.654;2022-11-18T08:33:25;7.50;;;1.40;;
74660;SDS011;63191;39.566;2.654;2022-11-18T08:35:51;5.70;;;1.00;;
74660;SDS011;63191;39.566;2.654;2022-11-18T08:38:17;10.70;;;1.40;;
74660;SDS011;63191;39.566;2.654;2022-11-18T08:40:45;9.60;;;1.40;;
74660;SDS011;63191;39.566;2.654;2022-11-18T08:43:14;8.60;;;1.70;;
74660;SDS011;63191;39.566;2.654;2022-11-18T08:45:40;11.40;;;1.60;;
74660;SDS011;63191;39.566;2.654;2022-11-18T08:48:06;9.40;;;1.30;;
74660;SDS011;63191;39.566;2.654;2022-11-18T08:50:32;8.30;;;1.70;;
74660;SDS011;63191;39.566;2.654;2022-11-18T08:52:58;6.60;;;1.80;;
74660;SDS011;63191;39.566;2.654;2022-11-18T08:55:23;6.50;;;1.60;;
74660;SDS011;63191;39.566;2.654;2022-11-18T08:57:49;7.20;;;1.80;;
74660;SDS011;63191;39.566;2.654;2022-11-18T09:00:15;5.80;;;2.30;;
74660;SDS011;63191;39.566;2.654;2022-11-18T09:02:41;5.80;;;2.30;;
74660;SDS011;63191;39.566;2.654;2022-11-18T09:05:07;6.00;;;2.70;;
74660;SDS011;63191;39.566;2.654;2022-11-18T09:07:33;6.40;;;2.60;;
74660;SDS011;63191;39.566;2.654;2022-11-18T09:09:58;6.60;;;2.80;;
74660;SDS011;63191;39.566;2.654;2022-11-18T09:12:24;11.00;;;3.50;;
74660;SDS011;63191;39.566;2.654;2022-11-18T09:14:50;7.10;;;3.50;;
74660;SDS011;63191;39.566;2.654;2022-11-18T09:17:15;6.70;;;3.60;;
74660;SDS011;63191;39.566;2.654;2022-11-18T09:19:41;4.70;;;2.40;;
74660;SDS011;63191;39.566;2.654;2022-11-18T09:22:07;5.50;;;2.70;;
74660;SDS011;63191;39.566;2.654;2022-11-18T09:24:33;7.40;;;2.80;;
74660;SDS011;63191;39.566;2.654;2022-11-18T09:27:04;6.10;;;3.30;;
74660;SDS011;63191;39.566;2.654;2022-11-18T09:29:31;5.50;;;3.30;;
74660;SDS011;63191;39.566;2.654;2022-11-18T09:31:57;4.30;;;2.10;;
74660;SDS011;63191;39.566;2.654;2022-11-18T09:34:27;6.40;;;3.40;;
74660;SDS011;63191;39.566;2.654;2022-11-18T09:36:53;6.10;;;3.80;;
74660;SDS011;63191;39.566;2.654;2022-11-18T09:39:23;6.10;;;3.90;;
74660;SDS011;63191;39.566;2.654;2022-11-18T09:45:12;6.60;;;4.00;;
74660;SDS011;63191;39.566;2.654;2022-11-18T09:47:45;6.10;;;4.10;;
74660;SDS011;63191;39.566;2.654;2022-11-18T09:50:16;7.10;;;3.60;;
74660;SDS011;63191;39.566;2.654;2022-11-18T09:55:32;6.70;;;2.60;;
74660;SDS011;63191;39.566;2.654;2022-11-18T09:58:00;4.80;;;2.40;;
74660;SDS011;63191;39.566;2.654;2022-11-18T10:00:28;5.10;;;2.50;;
74660;SDS011;63191;39.566;2.654;2022-11-18T10:03:06;5.10;;;2.50;;
74660;SDS011;63191;39.566;2.654;2022-11-18T10:05:48;10.40;;;3.80;;
74660;SDS011;63191;39.566;2.654;2022-11-18T10:08:32;4.90;;;2.50;;
74660;SDS011;63191;39.566;2.654;2022-11-18T10:11:17;8.60;;;3.00;;
74660;SDS011;63191;39.566;2.654;2022-11-18T10:14:21;7.80;;;3.60;;
74660;SDS011;63191;39.566;2.654;2022-11-18T10:20:31;10.00;;;4.00;;
74660;SDS011;63191;39.566;2.654;2022-11-18T10:23:28;12.10;;;4.90;;
74660;SDS011;63191;39.566;2.654;2022-11-18T10:25:59;7.50;;;4.40;;
74660;SDS011;63191;39.566;2.654;2022-11-18T10:28:27;7.10;;;4.20;;
74660;SDS011;63191;39.566;2.654;2022-11-18T10:31:03;7.30;;;3.30;;
74660;SDS011;63191;39.566;2.654;2022-11-18T10:33:31;5.90;;;3.00;;
74660;SDS011;63191;39.566;2.654;2022-11-18T10:38:41;7.30;;;2.80;;
74660;SDS011;63191;39.566;2.654;2022-11-18T10:41:15;10.40;;;2.20;;
74660;SDS011;63191;39.566;2.654;2022-11-18T10:43:54;6.30;;;2.20;;
74660;SDS011;63191;39.566;2.654;2022-11-18T10:46:26;4.90;;;1.80;;
74660;SDS011;63191;39.566;2.654;2022-11-18T10:49:11;5.30;;;1.70;;
74660;SDS011;63191;39.566;2.654;2022-11-18T10:51:46;4.80;;;1.30;;
74660;SDS011;63191;39.566;2.654;2022-11-18T10:54:32;6.40;;;1.10;;
74660;SDS011;63191;39.566;2.654;2022-11-18T10:57:14;5.50;;;1.10;;
74660;SDS011;63191;39.566;2.654;2022-11-18T10:59:45;8.90;;;1.20;;
74660;SDS011;63191;39.566;2.654;2022-11-18T11:02:32;4.50;;;0.90;;
74660;SDS011;63191;39.566;2.654;2022-11-18T11:05:18;5.60;;;0.90;;
74660;SDS011;63191;39.566;2.654;2022-11-18T11:08:00;5.40;;;0.70;;
74660;SDS011;63191;39.566;2.654;2022-11-18T11:10:31;4.70;;;0.80;;
74660;SDS011;63191;39.566;2.654;2022-11-18T11:13:04;4.30;;;0.80;;
74660;SDS011;63191;39.566;2.654;2022-11-18T11:15:41;8.10;;;0.70;;
74660;SDS011;63191;39.566;2.654;2022-11-18T11:18:21;14.20;;;1.40;;
74660;SDS011;63191;39.566;2.654;2022-11-18T11:21:15;7.50;;;1.10;;
74660;SDS011;63191;39.566;2.654;2022-11-18T11:23:45;6.50;;;0.90;;
74660;SDS011;63191;39.566;2.654;2022-11-18T11:40:39;7.40;;;1.00;;
74660;SDS011;63191;39.566;2.654;2022-11-18T11:43:48;11.90;;;1.20;;
74660;SDS011;63191;39.566;2.654;2022-11-18T11:46:42;5.90;;;0.80;;
74660;SDS011;63191;39.566;2.654;2022-11-18T11:50:16;3.10;;;0.70;;
74660;SDS011;63191;39.566;2.654;2022-11-18T11:52:54;5.00;;;0.70;;
74660;SDS011;63191;39.566;2.654;2022-11-18T11:55:30;3.50;;;0.50;;
74660;SDS011;63191;39.566;2.654;2022-11-18T12:01:13;4.80;;;0.70;;
74660;SDS011;63191;39.566;2.654;2022-11-18T12:03:52;7.30;;;1.00;;
74660;SDS011;63191;39.566;2.654;2022-11-18T12:06:50;4.20;;;0.60;;
74660;SDS011;63191;39.566;2.654;2022-11-18T12:18:29;6.40;;;0.60;;
74660;SDS011;63191;39.566;2.654;2022-11-18T12:21:00;9.30;;;1.00;;
74660;SDS011;63191;39.566;2.654;2022-11-18T12:23:27;4.70;;;0.70;;
74660;SDS011;63191;39.566;2.654;2022-11-18T12:26:08;4.40;;;0.70;;
74660;SDS011;63191;39.566;2.654;2022-11-18T12:28:39;7.60;;;0.70;;
74660;SDS011;63191;39.566;2.654;2022-11-18T12:33:56;8.10;;;0.90;;
74660;SDS011;63191;39.566;2.654;2022-11-18T12:36:36;4.40;;;0.60;;
74660;SDS011;63191;39.566;2.654;2022-11-18T12:44:40;6.10;;;0.90;;
74660;SDS011;63191;39.566;2.654;2022-11-18T12:47:15;4.60;;;1.00;;
74660;SDS011;63191;39.566;2.654;2022-11-18T12:55:01;4.60;;;0.90;;
74660;SDS011;63191;39.566;2.654;2022-11-18T12:57:31;7.00;;;1.00;;
74660;SDS011;63191;39.566;2.654;2022-11-18T13:00:14;6.60;;;1.10;;
74660;SDS011;63191;39.566;2.654;2022-11-18T13:02:51;3.50;;;0.90;;
74660;SDS011;63191;39.566;2.654;2022-11-18T13:05:21;6.40;;;1.00;;
74660;SDS011;63191;39.566;2.654;2022-11-18T13:08:10;5.40;;;0.80;;
74660;SDS011;63191;39.566;2.654;2022-11-18T13:13:25;4.50;;;0.70;;
74660;SDS011;63191;39.566;2.654;2022-11-18T13:16:02;5.30;;;0.70;;
74660;SDS011;63191;39.566;2.654;2022-11-18T13:18:50;3.40;;;0.50;;
74660;SDS011;63191;39.566;2.654;2022-11-18T13:21:22;6.40;;;0.80;;
74660;SDS011;63191;39.566;2.654;2022-11-18T13:24:13;3.50;;;0.60;;
74660;SDS011;63191;39.566;2.654;2022-11-18T13:26:44;3.60;;;0.50;;
74660;SDS011;63191;39.566;2.654;2022-11-18T13:29:50;4.40;;;0.80;;
74660;SDS011;63191;39.566;2.654;2022-11-18T13:32:47;6.10;;;0.70;;
74660;SDS011;63191;39.566;2.654;2022-11-18T13:35:20;5.30;;;0.70;;
74660;SDS011;63191;39.566;2.654;2022-11-18T13:37:51;3.60;;;0.60;;
74660;SDS011;63191;39.566;2.654;2022-11-18T13:40:37;4.40;;;0.50;;
74660;SDS011;63191;39.566;2.654;2022-11-18T13:43:30;5.60;;;0.50;;
74660;SDS011;63191;39.566;2.654;2022-11-18T13:46:02;4.50;;;0.50;;
74660;SDS011;63191;39.566;2.654;2022-11-18T13:48:32;5.40;;;0.60;;
74660;SDS011;63191;39.566;2.654;2022-11-18T13:51:00;5.00;;;0.50;;
74660;SDS011;63191;39.566;2.654;2022-11-18T13:53:35;5.20;;;0.90;;
74660;SDS011;63191;39.566;2.654;2022-11-18T13:56:12;4.40;;;0.70;;
74660;SDS011;63191;39.566;2.654;2022-11-18T13:58:54;4.50;;;0.50;;
74660;SDS011;63191;39.566;2.654;2022-11-18T14:01:31;2.90;;;0.40;;
74660;SDS011;63191;39.566;2.654;2022-11-18T14:04:04;5.40;;;0.80;;
74660;SDS011;63191;39.566;2.654;2022-11-18T14:09:23;7.30;;;1.80;;
74660;SDS011;63191;39.566;2.654;2022-11-18T14:14:50;3.20;;;0.50;;
74660;SDS011;63191;39.566;2.654;2022-11-18T14:17:22;3.60;;;0.50;;
74660;SDS011;63191;39.566;2.654;2022-11-18T14:19:55;4.20;;;0.50;;
74660;SDS011;63191;39.566;2.654;2022-11-18T14:22:24;5.80;;;0.90;;
74660;SDS011;63191;39.566;2.654;2022-11-18T14:27:28;4.00;;;0.50;;
74660;SDS011;63191;39.566;2.654;2022-11-18T14:33:12;5.90;;;0.70;;
74660;SDS011;63191;39.566;2.654;2022-11-18T14:35:43;6.70;;;0.70;;
74660;SDS011;63191;39.566;2.654;2022-11-18T14:41:06;4.40;;;0.60;;
74660;SDS011;63191;39.566;2.654;2022-11-18T14:43:34;3.50;;;0.50;;
74660;SDS011;63191;39.566;2.654;2022-11-18T14:46:09;4.90;;;0.60;;
74660;SDS011;63191;39.566;2.654;2022-11-18T14:48:39;2.30;;;0.50;;
74660;SDS011;63191;39.566;2.654;2022-11-18T14:51:05;5.80;;;0.80;;
74660;SDS011;63191;39.566;2.654;2022-11-18T14:53:30;6.30;;;1.10;;
74660;SDS011;63191;39.566;2.654;2022-11-18T14:55:57;4.80;;;0.80;;
74660;SDS011;63191;39.566;2.654;2022-11-18T14:58:24;7.60;;;0.90;;
74660;SDS011;63191;39.566;2.654;2022-11-18T15:00:50;3.80;;;0.60;;
74660;SDS011;63191;39.566;2.654;2022-11-18T15:03:16;3.50;;;0.60;;
74660;SDS011;63191;39.566;2.654;2022-11-18T15:05:42;9.40;;;0.90;;
74660;SDS011;63191;39.566;2.654;2022-11-18T15:08:08;7.60;;;0.70;;
74660;SDS011;63191;39.566;2.654;2022-11-18T15:10:34;25.90;;;2.50;;
74660;SDS011;63191;39.566;2.654;2022-11-18T15:13:00;9.10;;;1.10;;
74660;SDS011;63191;39.566;2.654;2022-11-18T15:15:26;8.80;;;2.10;;
74660;SDS011;63191;39.566;2.654;2022-11-18T15:17:53;10.20;;;3.50;;
74660;SDS011;63191;39.566;2.654;2022-11-18T15:20:20;7.60;;;1.90;;
74660;SDS011;63191;39.566;2.654;2022-11-18T15:22:47;4.40;;;0.90;;
74660;SDS011;63191;39.566;2.654;2022-11-18T15:25:12;10.20;;;0.70;;
74660;SDS011;63191;39.566;2.654;2022-11-18T15:27:38;4.30;;;0.60;;
74660;SDS011;63191;39.566;2.654;2022-11-18T15:30:05;4.60;;;0.40;;
74660;SDS011;63191;39.566;2.654;2022-11-18T15:32:31;4.80;;;0.50;;
74660;SDS011;63191;39.566;2.654;2022-11-18T15:34:57;3.10;;;0.40;;
74660;SDS011;63191;39.566;2.654;2022-11-18T15:37:23;8.50;;;0.50;;
74660;SDS011;63191;39.566;2.654;2022-11-18T15:39:48;6.40;;;0.90;;
74660;SDS011;63191;39.566;2.654;2022-11-18T15:42:17;8.40;;;0.70;;
74660;SDS011;63191;39.566;2.654;2022-11-18T15:44:44;6.10;;;0.50;;
74660;SDS011;63191;39.566;2.654;2022-11-18T15:47:10;7.00;;;0.90;;
74660;SDS011;63191;39.566;2.654;2022-11-18T15:49:36;6.50;;;0.60;;
74660;SDS011;63191;39.566;2.654;2022-11-18T15:52:09;6.60;;;0.60;;
74660;SDS011;63191;39.566;2.654;2022-11-18T15:54:36;5.80;;;0.50;;
74660;SDS011;63191;39.566;2.654;2022-11-18T15:57:02;8.30;;;1.00;;
74660;SDS011;63191;39.566;2.654;2022-11-18T15:59:28;14.50;;;1.80;;
74660;SDS011;63191;39.566;2.654;2022-11-18T16:01:54;10.80;;;1.10;;
74660;SDS011;63191;39.566;2.654;2022-11-18T16:04:21;6.70;;;1.00;;
74660;SDS011;63191;39.566;2.654;2022-11-18T16:06:47;9.20;;;1.50;;
74660;SDS011;63191;39.566;2.654;2022-11-18T16:09:14;8.20;;;1.20;;
74660;SDS011;63191;39.566;2.654;2022-11-18T16:11:41;6.10;;;0.90;;
74660;SDS011;63191;39.566;2.654;2022-11-18T16:14:26;4.60;;;0.80;;
74660;SDS011;63191;39.566;2.654;2022-11-18T16:16:53;4.90;;;0.90;;
74660;SDS011;63191;39.566;2.654;2022-11-18T16:19:23;9.90;;;1.80;;
74660;SDS011;63191;39.566;2.654;2022-11-18T16:21:52;8.10;;;2.20;;
74660;SDS011;63191;39.566;2.654;2022-11-18T16:24:23;10.30;;;2.90;;
74660;SDS011;63191;39.566;2.654;2022-11-18T16:26:51;14.60;;;4.20;;
74660;SDS011;63191;39.566;2.654;2022-11-18T16:29:17;10.20;;;3.80;;
74660;SDS011;63191;39.566;2.654;2022-11-18T16:31:46;13.60;;;4.40;;
74660;SDS011;63191;39.566;2.654;2022-11-18T16:36:50;12.60;;;5.20;;
74660;SDS011;63191;39.566;2.654;2022-11-18T16:39:26;15.50;;;6.00;;
74660;SDS011;63191;39.566;2.654;2022-11-18T16:41:57;15.00;;;5.20;;
74660;SDS011;63191;39.566;2.654;2022-11-18T16:44:24;12.90;;;4.60;;
74660;SDS011;63191;39.566;2.654;2022-11-18T16:46:52;8.50;;;3.00;;
74660;SDS011;63191;39.566;2.654;2022-11-18T16:49:21;8.70;;;2.20;;